Home > Products > Valid Products > TAF

000
FTUS44 KMAF 220500
TAFMAF
TAF
KMAF 220532Z 2206/2306 15008KT P6SM BKN060
     FM221200 16008KT P6SM -SHRA BKN035
     FM230300 15006KT P6SM SCT040=



000
FTUS44 KMAF 220500
TAFMAF
TAF
KMAF 220532Z 2206/2306 15008KT P6SM BKN060
     FM221200 16008KT P6SM -SHRA BKN035
     FM230300 15006KT P6SM SCT040=



000
FTUS44 KMAF 212300
TAFMAF
TAF
KMAF 212320Z 2200/2224 15008KT P6SM OVC060
     FM221200 16008KT P6SM -SHRA BKN035=



000
FTUS44 KMAF 212300
TAFMAF
TAF
KMAF 212320Z 2200/2224 15008KT P6SM OVC060
     FM221200 16008KT P6SM -SHRA BKN035=



000
FTUS44 KMAF 211700
TAFMAF
TAF
KMAF 211735Z 2118/2218 15009KT P6SM OVC060
     FM220300 14009KT 5SM -SHRA BKN030 OVC060
     FM221200 16008KT P6SM BKN050=



000
FTUS44 KMAF 211100
TAFMAF
TAF
KMAF 211125Z 2112/2212 13008KT P6SM BKN060
     FM212000 14008KT P6SM BKN030
     FM220300 16006KT 4SM -SHRA SCT015 BKN030=



000
FTUS44 KMAF 211100
TAFMAF
TAF
KMAF 211125Z 2112/2212 13008KT P6SM BKN060
     FM212000 14008KT P6SM BKN030
     FM220300 16006KT 4SM -SHRA SCT015 BKN030=



000
FTUS44 KMAF 210500
TAFMAF
TAF
KMAF 210535Z 2106/2206 12011KT P6SM SCT040 BKN130
     FM211200 13008KT P6SM BKN025=



000
FTUS44 KMAF 202300
TAFMAF
TAF
KMAF 202324Z 2100/2124 12011KT P6SM SCT040 BKN130
     FM211100 13008KT P6SM BKN025=



000
FTUS44 KMAF 202000 AAA
TAFMAF
TAF AMD
KMAF 202059Z 2021/2118 12011KT P6SM SCT040 BKN100
      TEMPO 2022/2102 VRB15G25KT 3SM -TSRA BR OVC030CB
     FM210200 18008KT P6SM SCT050 BKN120 PROB30 2110/2114 -SHRA=



000
FTUS44 KMAF 201700 RRA
TAFMAF
TAF
KMAF 201744Z 2018/2118 14007KT P6SM SCT030 BKN100
      TEMPO 2022/2102 VRB15G25KT 3SM -TSRA BR OVC030CB
     FM210200 18008KT P6SM SCT050 BKN120 PROB30 2110/2114 -SHRA=



000
FTUS44 KMAF 201400 AAA
TAFMAF
TAF AMD
KMAF 201443Z 2015/2112 11006KT P6SM BKN015
     FM201600 13009KT P6SM SCT040 BKN150=



000
FTUS44 KMAF 201100
TAFMAF
TAF
KMAF 201134Z 2012/2112 14006KT P6SM SCT030 BKN110
      TEMPO 2012/2016 BKN020
     FM201600 13009KT P6SM SCT060 BKN130 BKN250=



000
FTUS44 KMAF 200500
TAFMAF
TAF
KMAF 200525Z 2006/2106 14006KT P6SM SCT110
      TEMPO 2012/2016 BKN020
     FM201600 13009KT P6SM SCT110 BKN250=



000
FTUS44 KMAF 200000 CCA
TAFMAF
TAF COR
KMAF 200003Z 2000/2024 14014KT P6SM FEW050 SCT110
     FM200100 13010KT P6SM SCT110
     FM200700 13009KT P6SM BKN012
     FM201500 16008KT P6SM BKN030=



000
FTUS44 KMAF 200000 CCA
TAFMAF
TAF COR
KMAF 200003Z 2000/2024 14014KT P6SM FEW050 SCT110
     FM200100 13010KT P6SM SCT110
     FM200700 13009KT P6SM BKN012
     FM201500 16008KT P6SM BKN030=



000
FTUS44 KMAF 192300
TAFMAF
TAF
KMAF 192321Z 2000/2024 12015G21KT P6SM FEW050 SCT110
     FM200100 13010KT P6SM SCT110
     FM200700 13009KT P6SM BKN012
     FM201500 16008KT P6SM BKN030=



000
FTUS44 KMAF 192300
TAFMAF
TAF
KMAF 192321Z 2000/2024 12015G21KT P6SM FEW050 SCT110
     FM200100 13010KT P6SM SCT110
     FM200700 13009KT P6SM BKN012
     FM201500 16008KT P6SM BKN030=



000
FTUS44 KMAF 192200 AAA
TAFMAF
TAF AMD
KMAF 192234Z 1923/2018 13011KT P6SM SCT040 SCT110
     FM200700 13009KT P6SM BKN012
     FM201500 16008KT P6SM BKN030=



000
FTUS44 KMAF 192200 AAA
TAFMAF
TAF AMD
KMAF 192234Z 1923/2018 13011KT P6SM SCT040 SCT110
     FM200700 13009KT P6SM BKN012
     FM201500 16008KT P6SM BKN030=



000
FTUS44 KMAF 191700
TAFMAF
TAF
KMAF 191729Z 1918/2018 15009KT P6SM SCT015 BKN040 OVC120
     FM200700 13009KT P6SM BKN012
     FM201500 16008KT P6SM BKN030=



000
FTUS44 KMAF 191600 AAA
TAFMAF
TAF AMD
KMAF 191610Z 1916/2012 15005KT P6SM SCT015 BKN040 OVC120
     FM192000 13009KT P6SM BKN050=



000
FTUS44 KMAF 191300 AAA
TAFMAF
TAF AMD
KMAF 191309Z 1913/2012 07005KT P6SM SCT015 BKN050 OVC120
     FM191600 10006KT P6SM -SHRA BKN020
     FM192000 13009KT P6SM BKN050=



000
FTUS44 KMAF 191100
TAFMAF
TAF
KMAF 191120Z 1912/2012 03005KT P6SM SCT040 BKN100
     FM191300 05005KT P6SM -SHRA BKN020
     FM192000 13009KT P6SM BKN050=



000
FTUS44 KMAF 191000 AAA
TAFMAF
TAF AMD
KMAF 191034Z 1911/2006 07009KT P6SM SCT060 BKN120
     FM191200 09007KT P6SM -SHRA BKN015
     FM191800 13009KT P6SM BKN050=



    US Dept of Commerce
    National Oceanic and Atmospheric Administration
    National Weather Service
    1325 East West Highway
    Silver Spring, MD 20910
    Page Author: NWS Internet Services Team
Disclaimer
Information Quality
Credits
Glossary
Privacy Policy
Freedom of Information Act (FOIA)
About Us
Career Opportunities